createdAt,value
2022-08-19T00:00:23.603Z,97973.69
2022-08-19T00:02:25.143Z,97978.84
2022-08-19T00:04:35.802Z,97983.19
2022-08-19T00:06:40.288Z,97986.72
2022-08-19T00:08:42.962Z,97993.84
2022-08-19T00:10:44.819Z,97992.59
2022-08-19T00:12:47.149Z,97984.97
2022-08-19T00:14:48.856Z,97986.88
2022-08-19T00:16:52.335Z,97989.22
2022-08-19T00:18:56.396Z,97980.03
2022-08-19T00:20:58.437Z,97978.78
2022-08-19T00:23:00.128Z,97971.94
2022-08-19T00:25:02.154Z,97960.31
2022-08-19T00:27:25.561Z,97957.91
2022-08-19T00:29:26.278Z,97954.22
2022-08-19T00:31:29.022Z,97951.38
2022-08-19T00:33:33.511Z,97950.91
2022-08-19T00:35:35.394Z,97959.69
2022-08-19T00:37:37.378Z,97962.84
2022-08-19T00:39:39.153Z,97962.41
2022-08-19T00:41:42.366Z,97956.75
2022-08-19T00:43:43.956Z,97958.72
2022-08-19T00:45:45.599Z,97946.31
2022-08-19T00:47:47.266Z,97952.28
2022-08-19T00:49:52.916Z,97953.44
2022-08-19T00:52:01.203Z,97959.75
2022-08-19T00:54:04.287Z,97966.06
2022-08-19T00:56:08.223Z,97971.22
2022-08-19T00:58:14.246Z,97967.19
2022-08-19T01:00:19.561Z,97978.75
2022-08-19T01:02:21.361Z,97971.09
2022-08-19T01:04:22.888Z,97981.84
2022-08-19T01:06:24.537Z,97986.94
2022-08-19T01:08:26.203Z,97997.66
2022-08-19T01:10:38.127Z,97996.06
2022-08-19T01:12:40.697Z,97999.22
2022-08-19T01:14:42.237Z,97997.94
2022-08-19T01:16:46.620Z,97990.31
2022-08-19T01:18:48.242Z,97987.88
2022-08-19T01:20:49.921Z,97996.25
2022-08-19T01:22:58.233Z,97987.44
2022-08-19T01:24:59.962Z,97991.41
2022-08-19T01:27:05.733Z,97987.34
2022-08-19T01:29:13.196Z,97998.91
2022-08-19T01:31:27.254Z,98006.03
2022-08-19T01:33:31.854Z,98007.19
2022-08-19T01:35:33.640Z,98018.75
2022-08-19T01:37:52.371Z,98011.91
2022-08-19T01:39:54.592Z,98017.47
2022-08-19T01:41:56.302Z,98009.09
2022-08-19T01:44:13.543Z,98005.88
2022-08-19T01:46:24.606Z,98003.44
2022-08-19T01:48:26.669Z,98014.16
2022-08-19T01:50:28.676Z,98018.94
2022-08-19T01:52:30.294Z,98021.72
2022-08-19T01:54:33.025Z,98020.13
2022-08-19T01:56:34.684Z,98022.44
2022-08-19T01:58:41.703Z,98028.84
2022-08-19T02:00:44.471Z,98026.44
2022-08-19T02:02:46.312Z,98035.97
2022-08-19T02:04:48.857Z,98024.34
2022-08-19T02:06:50.395Z,98034.38
2022-08-19T02:08:51.986Z,98044.72
2022-08-19T02:10:59.065Z,98040.28
2022-08-19T02:13:00.720Z,98030.31
2022-08-19T02:15:03.376Z,98027.88
2022-08-19T02:17:05.129Z,98015.88
2022-08-19T02:19:06.867Z,98016.25
2022-08-19T02:21:08.856Z,98005.09
2022-08-19T02:23:13.797Z,98011.03
2022-08-19T02:25:17.804Z,98017.41
2022-08-19T02:27:19.445Z,98017.41
2022-08-19T02:29:21.610Z,98024.53
2022-08-19T02:31:26.664Z,98039.31
2022-08-19T02:33:28.273Z,98042.09
2022-08-19T02:35:29.724Z,98040.50
2022-08-19T02:37:49.940Z,98046.09
2022-08-19T02:39:51.592Z,98056.78
2022-08-19T02:41:54.209Z,98051.19
2022-08-19T02:44:26.462Z,98052.38
2022-08-19T02:46:23.135Z,98060.75
2022-08-19T02:48:26.840Z,98057.16
2022-08-19T02:50:28.701Z,98052.38
2022-08-19T02:52:30.234Z,98060.31
2022-08-19T02:54:31.825Z,98071.50
2022-08-19T02:56:37.021Z,98074.28
2022-08-19T02:58:38.944Z,98076.59
2022-08-19T03:00:50.195Z,98073.81
2022-08-19T03:02:51.879Z,98076.59
2022-08-19T03:04:53.441Z,98077.78
2022-08-19T03:06:57.530Z,98068.59
2022-08-19T03:09:01.071Z,98063.81
2022-08-19T03:11:03.063Z,98072.53
2022-08-19T03:13:04.881Z,98063.38
2022-08-19T03:15:08.378Z,98074.56
2022-08-19T03:17:10.337Z,98077.34
2022-08-19T03:19:12.262Z,98079.31
2022-08-19T03:21:24.885Z,98064.91
2022-08-19T03:23:26.535Z,98056.16
2022-08-19T03:25:28.152Z,98052.94
2022-08-19T03:27:32.979Z,98044.19
2022-08-19T03:29:43.928Z,98047.34
2022-08-19T03:31:52.593Z,98051.31
2022-08-19T03:33:54.811Z,98046.91
2022-08-19T03:36:12.330Z,98049.69
2022-08-19T03:38:13.959Z,98053.66
2022-08-19T03:40:16.608Z,98045.28
2022-08-19T03:42:45.452Z,98042.47
2022-08-19T03:44:40.041Z,98036.09
2022-08-19T03:46:42.346Z,98029.69
2022-08-19T03:48:46.240Z,98030.50
2022-08-19T03:50:47.733Z,98022.47
2022-08-19T03:52:51.648Z,98015.25
2022-08-19T03:54:53.377Z,98020.84
2022-08-19T03:56:56.936Z,98024.44
2022-08-19T03:59:00.633Z,98025.59
2022-08-19T04:01:02.177Z,98029.59
2022-08-19T04:03:03.832Z,98028.41
2022-08-19T04:05:06.419Z,98022.38
2022-08-19T04:07:10.364Z,98017.59
2022-08-19T04:09:12.519Z,98011.22
2022-08-19T04:11:42.672Z,98006.00
2022-08-19T04:13:46.047Z,98007.16
2022-08-19T04:15:47.615Z,98015.53
2022-08-19T04:17:49.566Z,98011.16
2022-08-19T04:19:51.040Z,98016.72
2022-08-19T04:21:55.208Z,98016.72
2022-08-19T04:23:58.136Z,98004.75
2022-08-19T04:25:59.771Z,98020.66
2022-08-19T04:28:01.556Z,98024.63
2022-08-19T04:30:04.764Z,98023.84
2022-08-19T04:32:08.984Z,98027.78
2022-08-19T04:34:13.194Z,98030.94
2022-08-19T04:36:23.447Z,98032.09
2022-08-19T04:38:25.142Z,98038.06
2022-08-19T04:40:45.230Z,98044.78
2022-08-19T04:42:47.066Z,98051.53
2022-08-19T04:44:48.946Z,98045.16
2022-08-19T04:46:51.995Z,98043.53
2022-08-19T04:48:54.546Z,98047.47
2022-08-19T04:51:01.226Z,98051.47
2022-08-19T04:53:02.846Z,98059.00
2022-08-19T04:55:07.055Z,98062.19
2022-08-19T04:57:10.766Z,98058.19
2022-08-19T04:59:13.007Z,98066.13
2022-08-19T05:01:20.878Z,98074.06
2022-08-19T05:03:22.657Z,98083.22
2022-08-19T05:05:24.449Z,98087.19
2022-08-19T05:07:26.181Z,98091.13
2022-08-19T05:09:36.139Z,98090.78
2022-08-19T05:11:53.746Z,98090.34
2022-08-19T05:13:56.062Z,98099.06
2022-08-19T05:15:59.904Z,98103.47
2022-08-19T05:18:20.048Z,98104.63
2022-08-19T05:20:41.645Z,98103.81
2022-08-19T05:22:47.488Z,98101.41
2022-08-19T05:25:11.224Z,98106.97
2022-08-19T05:27:11.420Z,98114.06
2022-08-19T05:29:15.800Z,98119.28
2022-08-19T05:31:17.432Z,98117.31
2022-08-19T05:33:19.658Z,98116.88
2022-08-19T05:35:21.273Z,98117.31
2022-08-19T05:37:23.768Z,98123.25
2022-08-19T05:39:29.337Z,98129.66
2022-08-19T05:41:31.712Z,98131.63
2022-08-19T05:43:33.501Z,98137.22
2022-08-19T05:45:40.134Z,98144.75
2022-08-19T05:47:42.130Z,98139.19
2022-08-19T05:49:44.063Z,98135.25
2022-08-19T05:51:46.074Z,98143.59
2022-08-19T05:53:47.640Z,98140.81
2022-08-19T05:55:49.249Z,98148.38
2022-08-19T05:57:50.851Z,98147.56
2022-08-19T05:59:58.254Z,98140.00
2022-08-19T06:02:01.650Z,98135.56
2022-08-19T06:04:04.436Z,98141.97
2022-08-19T06:06:10.172Z,98141.97
2022-08-19T06:08:12.045Z,98146.41
2022-08-19T06:10:13.676Z,98148.38
2022-08-19T06:12:15.337Z,98143.59
2022-08-19T06:14:21.469Z,98144.75
2022-08-19T06:16:32.589Z,98145.22
2022-08-19T06:18:34.483Z,98143.59
2022-08-19T06:20:55.029Z,98134.06
2022-08-19T06:22:57.286Z,98142.88
2022-08-19T06:24:58.835Z,98136.50
2022-08-19T06:27:01.502Z,98135.69
2022-08-19T06:29:06.921Z,98138.09
2022-08-19T06:31:08.837Z,98133.34
2022-08-19T06:33:10.352Z,98136.59
2022-08-19T06:35:12.377Z,98122.28
2022-08-19T06:37:15.256Z,98137.50
2022-08-19T06:39:25.495Z,98131.94
2022-08-19T06:41:28.050Z,98141.56
2022-08-19T06:43:29.610Z,98137.25
2022-08-19T06:45:34.934Z,98132.13
2022-08-19T06:47:37.479Z,98130.94
2022-08-19T06:49:40.195Z,98133.00
2022-08-19T06:51:48.636Z,98134.28
2022-08-19T06:53:53.447Z,98136.34
2022-08-19T06:56:00.931Z,98144.47
2022-08-19T06:58:04.751Z,98147.72
2022-08-19T07:00:13.051Z,98147.84
2022-08-19T07:02:15.118Z,98150.25
2022-08-19T07:04:21.054Z,98155.13
2022-08-19T07:08:45.800Z,98150.81
2022-08-19T07:10:50.125Z,98154.03
2022-08-19T07:12:51.929Z,98154.50
2022-08-19T07:14:53.982Z,98149.38
2022-08-19T07:16:58.131Z,98159.38
2022-08-19T07:19:00.268Z,98165.41
2022-08-19T07:21:17.397Z,98169.81
2022-08-19T07:23:19.203Z,98174.25
2022-08-19T07:25:22.923Z,98173.88
2022-08-19T07:27:34.990Z,98182.63
2022-08-19T07:29:37.339Z,98182.63
2022-08-19T07:31:39.567Z,98178.66
2022-08-19T07:33:44.278Z,98184.22
2022-08-19T07:35:45.902Z,98185.03
2022-08-19T07:37:47.547Z,98190.25
2022-08-19T07:39:49.217Z,98184.22
2022-08-19T07:41:51.570Z,98189.00
2022-08-19T07:43:54.225Z,98191.00
2022-08-19T07:45:58.159Z,98183.78
2022-08-19T07:48:00.613Z,98190.53
2022-08-19T07:50:05.326Z,98186.13
2022-08-19T07:52:10.972Z,98182.16
2022-08-19T07:54:12.781Z,98189.38
2022-08-19T07:56:15.752Z,98188.91
2022-08-19T07:58:20.043Z,98196.09
2022-08-19T08:00:24.283Z,98193.31
2022-08-19T08:02:26.389Z,98200.91
2022-08-19T08:04:48.251Z,98190.53
2022-08-19T08:07:08.361Z,98192.16
2022-08-19T08:09:13.589Z,98192.97
2022-08-19T08:11:21.070Z,98186.19
2022-08-19T08:13:22.615Z,98184.22
2022-08-19T08:15:25.118Z,98186.69
2022-08-19T08:17:48.509Z,98184.34
2022-08-19T08:19:51.921Z,98183.16
2022-08-19T08:21:58.742Z,98191.63
2022-08-19T08:26:07.199Z,98184.97
2022-08-19T08:28:11.456Z,98183.91
2022-08-19T08:30:24.360Z,98177.94
2022-08-19T08:32:26.105Z,98188.75
2022-08-19T08:34:28.140Z,98181.19
2022-08-19T08:36:29.924Z,98188.03
2022-08-19T08:38:38.362Z,98190.47
2022-08-19T08:41:07.632Z,98186.16
2022-08-19T08:43:32.383Z,98181.00
2022-08-19T08:45:42.473Z,98165.50
2022-08-19T08:47:48.705Z,98173.19
2022-08-19T08:49:54.681Z,98175.22
2022-08-19T08:52:32.045Z,98172.91
2022-08-19T08:54:40.632Z,98177.75
2022-08-19T08:56:54.019Z,98163.91
2022-08-19T08:59:07.928Z,98163.19
2022-08-19T09:01:12.308Z,98160.09
2022-08-19T09:03:24.334Z,98160.97
2022-08-19T09:05:41.481Z,98167.00
2022-08-19T09:08:03.709Z,98171.53
2022-08-19T09:10:21.355Z,98166.00
2022-08-19T09:13:04.231Z,98167.66
2022-08-19T09:15:14.795Z,98170.16
2022-08-19T09:17:16.422Z,98172.66
2022-08-19T09:19:22.489Z,98171.13
2022-08-19T09:21:32.994Z,98172.38
2022-08-19T09:23:36.714Z,98171.28
2022-08-19T09:25:38.564Z,98177.75
2022-08-19T09:27:43.706Z,98175.44
2022-08-19T09:29:45.761Z,98173.06
2022-08-19T09:31:48.679Z,98182.72
2022-08-19T09:33:52.214Z,98181.16
2022-08-19T09:36:08.364Z,98189.19
2022-08-19T09:38:10.517Z,98182.03
2022-08-19T09:40:13.556Z,98180.53
2022-08-19T09:42:16.477Z,98178.56
2022-08-19T09:44:31.508Z,98177.38
2022-08-19T09:46:33.181Z,98185.41
2022-08-19T09:48:35.093Z,98183.88
2022-08-19T09:50:51.318Z,98190.31
2022-08-19T09:52:56.982Z,98189.16
2022-08-19T09:54:59.608Z,98182.03
2022-08-19T09:57:03.801Z,98183.28
2022-08-19T09:59:10.346Z,98188.50
2022-08-19T10:01:21.930Z,98190.56
2022-08-19T10:03:25.567Z,98183.41
2022-08-19T10:05:50.304Z,98179.06
2022-08-19T10:07:52.014Z,98183.50
2022-08-19T10:09:53.869Z,98182.78
2022-08-19T10:11:55.556Z,98181.22
2022-08-19T10:13:57.428Z,98174.53
2022-08-19T10:16:08.712Z,98174.97
2022-08-19T10:18:12.452Z,98176.28
2022-08-19T10:20:14.047Z,98174.00
2022-08-19T10:22:16.378Z,98162.50
2022-08-19T10:24:17.928Z,98172.59
2022-08-19T10:26:24.177Z,98175.94
2022-08-19T10:28:28.800Z,98184.47
2022-08-19T10:30:32.148Z,98182.16
2022-08-19T10:32:34.619Z,98173.81
2022-08-19T10:34:38.070Z,98172.25
2022-08-19T10:37:00.627Z,98183.16
2022-08-19T10:39:09.354Z,98180.00
2022-08-19T10:41:14.443Z,98188.84
2022-08-19T10:43:17.237Z,98194.06
2022-08-19T10:45:20.232Z,98194.06
2022-08-19T10:47:25.657Z,98186.09
2022-08-19T10:49:28.126Z,98188.09
2022-08-19T10:51:49.575Z,98183.28
2022-08-19T10:53:52.041Z,98184.06
2022-08-19T10:56:12.187Z,98188.44
2022-08-19T10:58:15.589Z,98182.84
2022-08-19T11:00:17.541Z,98192.47
2022-08-19T11:02:19.202Z,98192.47
2022-08-19T11:04:21.477Z,98188.84
2022-08-19T11:06:32.921Z,98186.41
2022-08-19T11:08:38.319Z,98193.19
2022-08-19T11:10:43.753Z,98185.16
2022-08-19T11:12:55.285Z,98181.56
2022-08-19T11:14:56.966Z,98176.31
2022-08-19T11:16:58.510Z,98185.09
2022-08-19T11:19:00.397Z,98169.84
2022-08-19T11:21:21.178Z,98181.41
2022-08-19T11:23:22.756Z,98180.97
2022-08-19T11:25:24.534Z,98178.16
2022-08-19T11:27:26.178Z,98182.97
2022-08-19T11:29:28.894Z,98187.78
2022-08-19T11:31:33.205Z,98180.97
2022-08-19T11:33:34.927Z,98180.97
2022-08-19T11:35:40.784Z,98181.34
2022-08-19T11:37:42.643Z,98182.16
2022-08-19T11:39:44.339Z,98181.34
2022-08-19T11:41:55.290Z,98177.34
2022-08-19T11:43:56.905Z,98186.97
2022-08-19T11:45:58.973Z,98181.72
2022-08-19T11:48:00.551Z,98178.91
2022-08-19T11:50:02.195Z,98183.25
2022-08-19T11:52:04.136Z,98178.47
2022-08-19T11:54:07.011Z,98180.47
2022-08-19T11:56:09.533Z,98172.44
2022-08-19T11:58:19.023Z,98173.19
2022-08-19T12:00:20.963Z,98175.53
2022-08-19T12:02:22.893Z,98173.13
2022-08-19T12:04:24.705Z,98172.22
2022-08-19T12:06:29.623Z,98169.09
2022-08-19T12:08:31.836Z,98161.00
2022-08-19T12:10:34.172Z,98169.78
2022-08-19T12:12:36.092Z,98166.56
2022-08-19T12:14:37.755Z,98172.16
2022-08-19T12:16:42.734Z,98165.75
2022-08-19T12:18:52.184Z,98163.28
2022-08-19T12:20:57.517Z,98165.31
2022-08-19T12:22:59.070Z,98158.81
2022-08-19T12:25:01.746Z,98163.97
2022-08-19T12:27:04.007Z,98163.59
2022-08-19T12:29:06.275Z,98164.06
2022-08-19T12:31:08.815Z,98162.03
2022-08-19T12:33:11.470Z,98165.66
2022-08-19T12:35:13.256Z,98162.03
2022-08-19T12:37:14.971Z,98164.06
2022-08-19T12:39:16.481Z,98166.84
2022-08-19T12:41:19.625Z,98172.47
2022-08-19T12:43:21.651Z,98175.25
2022-08-19T12:45:23.748Z,98172.81
2022-08-19T12:47:27.363Z,98167.22
2022-08-19T12:49:52.443Z,98170.38
2022-08-19T12:51:53.354Z,98161.56
2022-08-19T12:53:54.884Z,98164.34
2022-08-19T12:55:58.237Z,98165.53
2022-08-19T12:58:02.432Z,98171.13
2022-08-19T13:00:12.323Z,98168.72
2022-08-19T13:02:13.793Z,98169.88
2022-08-19T13:04:16.221Z,98166.25
2022-08-19T13:06:20.226Z,98167.47
2022-08-19T13:08:22.006Z,98163.03
2022-08-19T13:10:28.799Z,98161.41
2022-08-19T13:12:30.448Z,98164.56
2022-08-19T13:14:32.382Z,98174.13
2022-08-19T13:16:35.499Z,98190.88
2022-08-19T13:18:37.493Z,98195.56
2022-08-19T13:20:41.681Z,98193.59
2022-08-19T13:22:43.623Z,98200.72
2022-08-19T13:24:47.485Z,98201.13
2022-08-19T13:26:49.307Z,98201.84
2022-08-19T13:29:09.602Z,98216.56
2022-08-19T13:31:30.005Z,98203.31
2022-08-19T13:33:33.092Z,98206.38
2022-08-19T13:35:35.082Z,98206.31
2022-08-19T13:37:42.754Z,98204.59
2022-08-19T13:39:45.937Z,98209.31
2022-08-19T13:41:49.040Z,98211.56
2022-08-19T13:43:50.606Z,98216.72
2022-08-19T13:45:56.436Z,98220.22
2022-08-19T13:47:59.703Z,98209.78
2022-08-19T13:50:04.333Z,98208.91
2022-08-19T13:52:06.756Z,98214.75
2022-08-19T13:54:09.452Z,98212.34
2022-08-19T13:56:14.802Z,98212.63
2022-08-19T13:58:16.336Z,98210.91
2022-08-19T14:00:19.247Z,98218.03
2022-08-19T14:02:21.363Z,98219.13
2022-08-19T14:04:23.026Z,98215.78
2022-08-19T14:06:24.682Z,98218.50
2022-08-19T14:08:28.786Z,98213.19
2022-08-19T14:10:32.609Z,98219.06
2022-08-19T14:12:34.454Z,98216.53
2022-08-19T14:14:40.369Z,98218.38
2022-08-19T14:16:42.155Z,98221.13
2022-08-19T14:18:44.433Z,98218.22
2022-08-19T14:20:46.482Z,98213.72
2022-08-19T14:22:49.154Z,98212.81
2022-08-19T14:24:51.411Z,98201.53
2022-08-19T14:26:53.173Z,98203.06
2022-08-19T14:28:58.385Z,98204.63
2022-08-19T14:31:00.200Z,98209.31
2022-08-19T14:33:02.864Z,98204.44
2022-08-19T14:35:06.239Z,98205.16
2022-08-19T14:37:08.885Z,98204.69
2022-08-19T14:39:15.794Z,98202.63
2022-08-19T14:41:20.486Z,98193.78
2022-08-19T14:43:23.180Z,98201.69
2022-08-19T14:45:24.673Z,98203.22
2022-08-19T14:47:27.750Z,98199.97
2022-08-19T14:49:35.364Z,98195.94
2022-08-19T14:51:47.928Z,98198.28
2022-08-19T14:53:49.877Z,98195.84
2022-08-19T14:55:52.042Z,98193.41
2022-08-19T14:57:53.648Z,98193.75
2022-08-19T14:59:55.262Z,98202.47
2022-08-19T15:01:56.901Z,98200.06
2022-08-19T15:03:58.465Z,98204.81
2022-08-19T15:06:01.671Z,98201.22
2022-08-19T15:08:04.837Z,98203.22
2022-08-19T15:10:07.959Z,98203.56
2022-08-19T15:12:09.594Z,98207.84
2022-08-19T15:14:11.118Z,98210.63
2022-08-19T15:16:18.402Z,98199.84
2022-08-19T15:18:21.373Z,98207.41
2022-08-19T15:20:23.608Z,98210.19
2022-08-19T15:22:25.161Z,98207.75
2022-08-19T15:24:27.883Z,98211.72
2022-08-19T15:26:33.508Z,98215.66
2022-08-19T15:28:36.971Z,98216.03
2022-08-19T15:30:40.777Z,98222.44
2022-08-19T15:32:44.263Z,98221.97
2022-08-19T15:34:49.878Z,98229.53
2022-08-19T15:36:55.099Z,98230.69
2022-08-19T15:38:57.221Z,98223.50
2022-08-19T15:41:18.967Z,98226.63
2022-08-19T15:43:23.789Z,98227.00
2022-08-19T15:45:32.580Z,98234.91
2022-08-19T15:47:35.472Z,98244.06
2022-08-19T15:49:37.257Z,98247.59
2022-08-19T15:51:40.539Z,98245.16
2022-08-19T15:53:43.114Z,98245.16
2022-08-19T15:55:46.215Z,98253.06
2022-08-19T15:58:06.707Z,98249.00
2022-08-19T16:00:28.731Z,98250.53
2022-08-19T16:02:48.933Z,98252.84
2022-08-19T16:05:13.943Z,98255.19
2022-08-19T16:07:15.552Z,98259.50
2022-08-19T16:09:29.044Z,98250.66
2022-08-19T16:11:39.491Z,98255.78
2022-08-19T16:13:42.224Z,98256.16
2022-08-19T16:15:44.927Z,98250.13
2022-08-19T16:17:55.471Z,98255.69
2022-08-19T16:19:58.812Z,98253.59
2022-08-19T16:22:00.495Z,98254.75
2022-08-19T16:24:06.759Z,98257.91
2022-08-19T16:26:09.540Z,98255.00
2022-08-19T16:28:11.165Z,98261.75
2022-08-19T16:30:15.564Z,98264.44
2022-08-19T16:32:17.255Z,98259.22
2022-08-19T16:34:19.020Z,98260.72
2022-08-19T16:36:24.631Z,98259.91
2022-08-19T16:38:27.664Z,98256.69
2022-08-19T16:40:29.736Z,98262.59
2022-08-19T16:42:31.478Z,98264.09
2022-08-19T16:44:32.980Z,98275.25
2022-08-19T16:46:34.963Z,98277.56
2022-08-19T16:48:42.873Z,98278.69
2022-08-19T16:50:49.561Z,98282.66
2022-08-19T16:52:51.950Z,98286.97
2022-08-19T16:54:53.970Z,98290.09
2022-08-19T16:56:56.211Z,98291.28
2022-08-19T16:58:59.702Z,98294.06
2022-08-19T17:01:07.201Z,98299.97
2022-08-19T17:03:14.731Z,98298.34
2022-08-19T17:05:17.017Z,98299.50
2022-08-19T17:07:20.092Z,98298.22
2022-08-19T17:09:26.057Z,98300.56
2022-08-19T17:11:30.014Z,98294.16
2022-08-19T17:13:31.642Z,98297.31
2022-08-19T17:15:33.464Z,98296.50
2022-08-19T17:17:35.820Z,98299.66
2022-08-19T17:19:39.397Z,98290.78
2022-08-19T17:21:41.220Z,98287.56
2022-08-19T17:23:44.200Z,98295.91
2022-08-19T17:25:46.155Z,98282.66
2022-08-19T17:27:47.727Z,98288.25
2022-08-19T17:29:49.397Z,98289.44
2022-08-19T17:31:51.349Z,98289.75
2022-08-19T17:33:53.011Z,98295.69
2022-08-19T17:35:56.903Z,98291.25
2022-08-19T17:38:02.930Z,98293.59
2022-08-19T17:40:07.593Z,98294.75
2022-08-19T17:42:10.744Z,98295.91
2022-08-19T17:44:12.308Z,98298.25
2022-08-19T17:46:18.689Z,98300.22
2022-08-19T17:48:20.505Z,98295.78
2022-08-19T17:50:23.517Z,98291.41
2022-08-19T17:52:25.809Z,98291.72
2022-08-19T17:54:33.339Z,98289.28
2022-08-19T17:56:35.655Z,98292.41
2022-08-19T17:58:40.468Z,98290.00
2022-08-19T18:00:53.627Z,98294.75
2022-08-19T18:02:58.659Z,98294.63
2022-08-19T18:05:00.253Z,98295.78
2022-08-19T18:07:04.279Z,98292.19
2022-08-19T18:09:06.563Z,98294.16
2022-08-19T18:11:09.249Z,98303.31
2022-08-19T18:13:17.739Z,98302.03
2022-08-19T18:15:20.719Z,98309.13
2022-08-19T18:17:24.473Z,98307.50
2022-08-19T18:19:26.884Z,98313.41
2022-08-19T18:21:42.634Z,98312.59
2022-08-19T18:23:46.090Z,98311.00
2022-08-19T18:25:47.989Z,98302.97
2022-08-19T18:27:54.703Z,98302.16
2022-08-19T18:29:59.000Z,98294.13
2022-08-19T18:32:00.689Z,98298.91
2022-08-19T18:34:02.237Z,98302.03
2022-08-19T18:36:04.590Z,98305.63
2022-08-19T18:38:29.904Z,98305.19
2022-08-19T18:40:50.050Z,98302.69
2022-08-19T18:43:10.681Z,98306.66
2022-08-19T18:45:30.960Z,98314.50
2022-08-19T18:47:51.223Z,98314.88
2022-08-19T18:49:52.943Z,98315.22
2022-08-19T18:51:56.620Z,98315.56
2022-08-19T18:53:59.724Z,98313.94
2022-08-19T18:56:02.480Z,98326.22
2022-08-19T18:58:04.569Z,98319.03
2022-08-19T19:00:07.542Z,98322.97
2022-08-19T19:02:11.049Z,98327.72
2022-08-19T19:04:13.499Z,98337.22
2022-08-19T19:06:27.538Z,98342.00
2022-08-19T19:08:29.382Z,98341.50
2022-08-19T19:10:31.239Z,98335.47
2022-08-19T19:12:36.484Z,98342.69
2022-08-19T19:14:49.770Z,98339.78
2022-08-19T19:16:52.229Z,98347.78
2022-08-19T19:18:53.862Z,98346.16
2022-08-19T19:20:56.707Z,98345.69
2022-08-19T19:22:58.583Z,98359.25
2022-08-19T19:25:02.127Z,98356.00
2022-08-19T19:27:06.952Z,98359.63
2022-08-19T19:29:08.566Z,98358.44
2022-08-19T19:31:13.484Z,98361.56
2022-08-19T19:33:15.422Z,98362.72
2022-08-19T19:35:17.175Z,98362.72
2022-08-19T19:37:19.322Z,98358.31
2022-08-19T19:39:30.564Z,98361.94
2022-08-19T19:41:43.010Z,98359.47
2022-08-19T19:43:44.670Z,98360.66
2022-08-19T19:45:48.367Z,98357.88
2022-08-19T19:47:50.223Z,98360.66
2022-08-19T19:50:13.310Z,98367.34
2022-08-19T19:52:14.101Z,98368.50
2022-08-19T19:54:15.963Z,98380.47
2022-08-19T19:56:17.440Z,98370.81
2022-08-19T19:58:21.325Z,98378.84
2022-08-19T20:00:30.596Z,98384.41
2022-08-19T20:02:32.150Z,98389.16
2022-08-19T20:04:33.782Z,98387.19
2022-08-19T20:06:36.333Z,98381.63
2022-08-19T20:08:56.673Z,98395.56
2022-08-19T20:11:01.605Z,98390.31
2022-08-19T20:13:04.609Z,98392.28
2022-08-19T20:15:07.804Z,98397.84
2022-08-19T20:17:09.249Z,98397.03
2022-08-19T20:19:13.154Z,98404.56
2022-08-19T20:21:14.671Z,98401.78
2022-08-19T20:23:23.665Z,98406.91
2022-08-19T20:25:25.299Z,98409.69
2022-08-19T20:27:26.850Z,98409.69
2022-08-19T20:29:39.270Z,98413.97
2022-08-19T20:31:55.143Z,98425.09
2022-08-19T20:33:59.921Z,98412.31
2022-08-19T20:36:01.661Z,98417.06
2022-08-19T20:38:08.689Z,98419.84
2022-08-19T20:40:13.056Z,98415.44
2022-08-19T20:42:14.846Z,98415.44
2022-08-19T20:44:16.446Z,98414.63
2022-08-19T20:46:18.398Z,98411.03
2022-08-19T20:48:20.166Z,98414.16
2022-08-19T20:50:21.988Z,98420.88
2022-08-19T20:52:23.525Z,98418.09
2022-08-19T20:54:26.210Z,98406.97
2022-08-19T20:56:28.252Z,98410.09
2022-08-19T20:58:31.521Z,98406.81
2022-08-19T21:00:33.415Z,98405.19
2022-08-19T21:02:35.284Z,98410.75
2022-08-19T21:04:36.989Z,98411.91
2022-08-19T21:06:39.922Z,98424.22
2022-08-19T21:08:43.930Z,98415.38
2022-08-19T21:10:48.048Z,98418.84
2022-08-19T21:12:50.124Z,98416.84
2022-08-19T21:14:53.865Z,98416.06
2022-08-19T21:16:55.995Z,98418.34
2022-08-19T21:18:57.732Z,98423.91
2022-08-19T21:20:59.354Z,98424.25
2022-08-19T21:23:04.901Z,98407.91
2022-08-19T21:25:07.261Z,98427.41
2022-08-19T21:27:08.816Z,98411.03
2022-08-19T21:29:10.583Z,98419.72
2022-08-19T21:31:12.389Z,98415.28
2022-08-19T21:33:13.971Z,98422.81
2022-08-19T21:35:15.802Z,98420.88
2022-08-19T21:37:24.773Z,98425.13
2022-08-19T21:39:27.119Z,98423.53
2022-08-19T21:41:29.602Z,98410.75
2022-08-19T21:43:31.864Z,98411.56
2022-08-19T21:45:33.686Z,98417.13
2022-08-19T21:47:35.370Z,98419.09
2022-08-19T21:49:36.976Z,98414.69
2022-08-19T21:51:38.562Z,98410.28
2022-08-19T21:53:40.374Z,98418.63
2022-08-19T21:55:52.808Z,98423.38
2022-08-19T21:57:55.495Z,98414.53
2022-08-19T21:59:57.435Z,98412.88
2022-08-19T22:02:15.728Z,98413.69
2022-08-19T22:04:20.833Z,98416.00
2022-08-19T22:06:23.030Z,98416.00
2022-08-19T22:08:26.360Z,98419.94
2022-08-19T22:10:31.039Z,98407.19
2022-08-19T22:12:35.374Z,98408.00
2022-08-19T22:14:38.250Z,98402.78
2022-08-19T22:16:39.910Z,98415.88
2022-08-19T22:18:41.581Z,98408.69
2022-08-19T22:20:43.580Z,98415.88
2022-08-19T22:22:57.986Z,98422.59
2022-08-19T22:25:13.704Z,98415.38
2022-08-19T22:27:30.847Z,98414.91
2022-08-19T22:29:34.055Z,98412.13
2022-08-19T22:31:37.489Z,98419.31
2022-08-19T22:33:39.261Z,98410.19
2022-08-19T22:35:41.894Z,98418.16
2022-08-19T22:37:43.651Z,98420.94
2022-08-19T22:39:45.513Z,98421.31
2022-08-19T22:41:47.137Z,98429.66
2022-08-19T22:43:48.909Z,98424.56
2022-08-19T22:45:52.400Z,98427.66
2022-08-19T22:47:54.526Z,98423.25
2022-08-19T22:49:56.353Z,98417.69
2022-08-19T22:52:19.035Z,98418.84
2022-08-19T22:54:20.754Z,98419.19
2022-08-19T22:56:22.536Z,98418.38
2022-08-19T22:58:27.856Z,98412.81
2022-08-19T23:00:31.478Z,98417.22
2022-08-19T23:02:52.326Z,98420.81
2022-08-19T23:04:54.981Z,98422.78
2022-08-19T23:06:56.586Z,98417.22
2022-08-19T23:08:58.357Z,98424.41
2022-08-19T23:10:59.991Z,98411.66
2022-08-19T23:13:01.971Z,98410.50
2022-08-19T23:15:17.191Z,98410.03
2022-08-19T23:17:20.566Z,98407.25
2022-08-19T23:19:22.645Z,98408.06
2022-08-19T23:21:26.447Z,98419.50
2022-08-19T23:23:28.428Z,98406.41
2022-08-19T23:25:32.463Z,98408.38
2022-08-19T23:27:52.393Z,98404.78
2022-08-19T23:30:12.529Z,98405.13
2022-08-19T23:32:18.461Z,98401.06
2022-08-19T23:34:20.012Z,98400.25
2022-08-19T23:36:22.763Z,98397.47
2022-08-19T23:38:24.940Z,98412.19
2022-08-19T23:40:27.000Z,98405.78
2022-08-19T23:42:28.863Z,98404.19
2022-08-19T23:44:30.421Z,98409.75
2022-08-19T23:46:32.316Z,98398.63
2022-08-19T23:48:48.170Z,98403.69
2022-08-19T23:50:50.009Z,98400.44
2022-08-19T23:52:54.745Z,98409.25
2022-08-19T23:55:00.836Z,98403.22
2022-08-19T23:57:02.397Z,98403.22
2022-08-19T23:59:14.996Z,98401.59
